sensor_id;sensor_type;location;lat;lon;timestamp;temperature;humidity
24152;DHT22;12311;50.866;4.332;2023-06-22T00:00:53;21.20;99.90
24152;DHT22;12311;50.866;4.332;2023-06-22T00:03:20;21.20;99.90
24152;DHT22;12311;50.866;4.332;2023-06-22T00:05:46;21.20;99.90
24152;DHT22;12311;50.866;4.332;2023-06-22T00:08:12;21.10;99.90
24152;DHT22;12311;50.866;4.332;2023-06-22T00:10:38;21.20;99.90
24152;DHT22;12311;50.866;4.332;2023-06-22T00:13:06;21.20;99.90
24152;DHT22;12311;50.866;4.332;2023-06-22T00:15:32;21.20;99.90
24152;DHT22;12311;50.866;4.332;2023-06-22T00:17:58;21.20;99.90
24152;DHT22;12311;50.866;4.332;2023-06-22T00:20:25;21.10;99.90
24152;DHT22;12311;50.866;4.332;2023-06-22T00:22:54;21.10;99.90
24152;DHT22;12311;50.866;4.332;2023-06-22T00:25:20;21.10;99.90
24152;DHT22;12311;50.866;4.332;2023-06-22T00:27:47;21.10;99.90
24152;DHT22;12311;50.866;4.332;2023-06-22T00:30:13;21.10;99.90
24152;DHT22;12311;50.866;4.332;2023-06-22T00:32:39;21.10;99.90
24152;DHT22;12311;50.866;4.332;2023-06-22T00:35:05;21.10;99.90
24152;DHT22;12311;50.866;4.332;2023-06-22T00:37:30;21.10;99.90
24152;DHT22;12311;50.866;4.332;2023-06-22T00:39:56;21.10;99.90
24152;DHT22;12311;50.866;4.332;2023-06-22T00:42:23;21.00;99.90
24152;DHT22;12311;50.866;4.332;2023-06-22T00:44:49;21.00;99.90
24152;DHT22;12311;50.866;4.332;2023-06-22T00:47:16;20.90;99.90
24152;DHT22;12311;50.866;4.332;2023-06-22T00:49:43;21.00;99.90
24152;DHT22;12311;50.866;4.332;2023-06-22T00:52:10;20.90;99.90
24152;DHT22;12311;50.866;4.332;2023-06-22T00:54:40;20.90;99.90
24152;DHT22;12311;50.866;4.332;2023-06-22T00:57:13;20.90;99.90
24152;DHT22;12311;50.866;4.332;2023-06-22T00:59:43;20.90;99.90
24152;DHT22;12311;50.866;4.332;2023-06-22T01:02:09;20.90;99.90
24152;DHT22;12311;50.866;4.332;2023-06-22T01:04:37;21.00;99.90
24152;DHT22;12311;50.866;4.332;2023-06-22T01:07:06;21.00;99.90
24152;DHT22;12311;50.866;4.332;2023-06-22T01:09:49;21.00;99.90
24152;DHT22;12311;50.866;4.332;2023-06-22T01:12:17;21.00;99.90
24152;DHT22;12311;50.866;4.332;2023-06-22T01:14:50;21.00;99.90
24152;DHT22;12311;50.866;4.332;2023-06-22T01:17:19;21.10;99.90
24152;DHT22;12311;50.866;4.332;2023-06-22T01:19:47;21.10;99.90
24152;DHT22;12311;50.866;4.332;2023-06-22T01:22:16;21.00;99.90
24152;DHT22;12311;50.866;4.332;2023-06-22T01:30:03;21.00;99.90
24152;DHT22;12311;50.866;4.332;2023-06-22T01:32:32;20.90;99.90
24152;DHT22;12311;50.866;4.332;2023-06-22T01:35:00;20.80;99.90
24152;DHT22;12311;50.866;4.332;2023-06-22T01:37:28;20.80;99.90
24152;DHT22;12311;50.866;4.332;2023-06-22T01:39:55;20.80;99.90
24152;DHT22;12311;50.866;4.332;2023-06-22T01:42:23;20.80;99.90
24152;DHT22;12311;50.866;4.332;2023-06-22T01:44:50;20.70;99.90
24152;DHT22;12311;50.866;4.332;2023-06-22T01:47:16;20.70;99.90
24152;DHT22;12311;50.866;4.332;2023-06-22T01:49:43;20.60;99.90
24152;DHT22;12311;50.866;4.332;2023-06-22T01:52:09;20.50;99.90
24152;DHT22;12311;50.866;4.332;2023-06-22T01:54:35;20.50;99.90
24152;DHT22;12311;50.866;4.332;2023-06-22T01:57:00;20.60;99.90
24152;DHT22;12311;50.866;4.332;2023-06-22T01:59:34;20.50;99.90
24152;DHT22;12311;50.866;4.332;2023-06-22T02:02:15;20.50;99.90
24152;DHT22;12311;50.866;4.332;2023-06-22T02:04:55;20.60;99.90
24152;DHT22;12311;50.866;4.332;2023-06-22T02:07:23;20.50;99.90
24152;DHT22;12311;50.866;4.332;2023-06-22T02:09:53;20.60;99.90
24152;DHT22;12311;50.866;4.332;2023-06-22T02:12:23;20.50;99.90
24152;DHT22;12311;50.866;4.332;2023-06-22T02:14:51;20.40;99.90
24152;DHT22;12311;50.866;4.332;2023-06-22T02:17:17;20.40;99.90
24152;DHT22;12311;50.866;4.332;2023-06-22T02:19:44;20.40;99.90
24152;DHT22;12311;50.866;4.332;2023-06-22T02:22:09;20.40;99.90
24152;DHT22;12311;50.866;4.332;2023-06-22T02:24:35;20.30;99.90
24152;DHT22;12311;50.866;4.332;2023-06-22T02:27:02;20.30;99.90
24152;DHT22;12311;50.866;4.332;2023-06-22T02:29:28;20.40;99.90
24152;DHT22;12311;50.866;4.332;2023-06-22T02:31:55;20.40;99.90
24152;DHT22;12311;50.866;4.332;2023-06-22T02:34:21;20.30;99.90
24152;DHT22;12311;50.866;4.332;2023-06-22T02:36:48;20.30;99.90
24152;DHT22;12311;50.866;4.332;2023-06-22T02:39:22;20.20;99.90
24152;DHT22;12311;50.866;4.332;2023-06-22T02:41:51;20.20;99.90
24152;DHT22;12311;50.866;4.332;2023-06-22T02:44:17;20.30;99.90
24152;DHT22;12311;50.866;4.332;2023-06-22T02:46:44;20.30;99.90
24152;DHT22;12311;50.866;4.332;2023-06-22T02:49:10;20.30;99.90
24152;DHT22;12311;50.866;4.332;2023-06-22T02:51:39;20.40;99.90
24152;DHT22;12311;50.866;4.332;2023-06-22T02:54:05;20.40;99.90
24152;DHT22;12311;50.866;4.332;2023-06-22T02:56:31;20.40;99.90
24152;DHT22;12311;50.866;4.332;2023-06-22T02:58:57;20.50;99.90
24152;DHT22;12311;50.866;4.332;2023-06-22T03:01:27;20.50;99.90
24152;DHT22;12311;50.866;4.332;2023-06-22T03:03:55;20.40;99.90
24152;DHT22;12311;50.866;4.332;2023-06-22T03:06:21;20.30;99.90
24152;DHT22;12311;50.866;4.332;2023-06-22T03:08:58;20.30;99.90
24152;DHT22;12311;50.866;4.332;2023-06-22T03:11:24;20.30;99.90
24152;DHT22;12311;50.866;4.332;2023-06-22T03:13:50;20.20;99.90
24152;DHT22;12311;50.866;4.332;2023-06-22T03:16:17;20.10;99.90
24152;DHT22;12311;50.866;4.332;2023-06-22T03:18:43;20.10;99.90
24152;DHT22;12311;50.866;4.332;2023-06-22T03:21:09;20.10;99.90
24152;DHT22;12311;50.866;4.332;2023-06-22T03:23:35;20.10;99.90
24152;DHT22;12311;50.866;4.332;2023-06-22T03:26:01;20.10;99.90
24152;DHT22;12311;50.866;4.332;2023-06-22T03:28:27;20.10;99.90
24152;DHT22;12311;50.866;4.332;2023-06-22T03:30:52;20.10;99.90
24152;DHT22;12311;50.866;4.332;2023-06-22T03:33:18;20.10;99.90
24152;DHT22;12311;50.866;4.332;2023-06-22T03:35:44;20.00;99.90
24152;DHT22;12311;50.866;4.332;2023-06-22T03:38:09;19.90;99.90
24152;DHT22;12311;50.866;4.332;2023-06-22T03:40:35;19.90;99.90
24152;DHT22;12311;50.866;4.332;2023-06-22T03:43:01;19.90;99.90
24152;DHT22;12311;50.866;4.332;2023-06-22T03:45:26;20.00;99.90
24152;DHT22;12311;50.866;4.332;2023-06-22T03:47:52;19.90;99.90
24152;DHT22;12311;50.866;4.332;2023-06-22T03:50:18;20.00;99.90
24152;DHT22;12311;50.866;4.332;2023-06-22T03:52:46;20.00;99.90
24152;DHT22;12311;50.866;4.332;2023-06-22T03:55:11;20.00;99.90
24152;DHT22;12311;50.866;4.332;2023-06-22T03:57:37;20.10;99.90
24152;DHT22;12311;50.866;4.332;2023-06-22T04:00:03;20.10;99.90
24152;DHT22;12311;50.866;4.332;2023-06-22T04:02:33;20.10;99.90
24152;DHT22;12311;50.866;4.332;2023-06-22T04:04:58;20.10;99.90
24152;DHT22;12311;50.866;4.332;2023-06-22T04:07:24;20.10;99.90
24152;DHT22;12311;50.866;4.332;2023-06-22T04:09:50;20.30;99.90
24152;DHT22;12311;50.866;4.332;2023-06-22T04:12:15;20.30;99.90
24152;DHT22;12311;50.866;4.332;2023-06-22T04:14:41;20.40;99.90
24152;DHT22;12311;50.866;4.332;2023-06-22T04:17:07;20.50;99.90
24152;DHT22;12311;50.866;4.332;2023-06-22T04:19:32;20.60;99.90
24152;DHT22;12311;50.866;4.332;2023-06-22T04:21:58;20.70;99.90
24152;DHT22;12311;50.866;4.332;2023-06-22T04:24:24;20.70;99.90
24152;DHT22;12311;50.866;4.332;2023-06-22T04:26:49;20.80;99.90
24152;DHT22;12311;50.866;4.332;2023-06-22T04:29:20;20.90;99.90
24152;DHT22;12311;50.866;4.332;2023-06-22T04:31:54;21.00;99.90
24152;DHT22;12311;50.866;4.332;2023-06-22T04:34:21;21.00;99.90
24152;DHT22;12311;50.866;4.332;2023-06-22T04:36:47;20.90;99.90
24152;DHT22;12311;50.866;4.332;2023-06-22T04:39:12;21.00;99.90
24152;DHT22;12311;50.866;4.332;2023-06-22T04:41:39;20.90;99.90
24152;DHT22;12311;50.866;4.332;2023-06-22T04:44:16;21.00;99.90
24152;DHT22;12311;50.866;4.332;2023-06-22T04:46:52;21.10;99.90
24152;DHT22;12311;50.866;4.332;2023-06-22T04:49:26;21.20;99.90
24152;DHT22;12311;50.866;4.332;2023-06-22T04:51:59;21.20;99.90
24152;DHT22;12311;50.866;4.332;2023-06-22T04:54:24;21.20;99.90
24152;DHT22;12311;50.866;4.332;2023-06-22T04:56:50;21.30;99.90
24152;DHT22;12311;50.866;4.332;2023-06-22T04:59:29;21.40;99.90
24152;DHT22;12311;50.866;4.332;2023-06-22T05:01:56;21.40;99.90
24152;DHT22;12311;50.866;4.332;2023-06-22T05:04:22;21.40;99.90
24152;DHT22;12311;50.866;4.332;2023-06-22T05:06:51;21.40;99.90
24152;DHT22;12311;50.866;4.332;2023-06-22T05:09:17;21.40;99.90
24152;DHT22;12311;50.866;4.332;2023-06-22T05:11:44;21.50;99.90
24152;DHT22;12311;50.866;4.332;2023-06-22T05:14:09;21.60;99.90
24152;DHT22;12311;50.866;4.332;2023-06-22T05:16:36;21.70;99.90
24152;DHT22;12311;50.866;4.332;2023-06-22T05:19:01;21.60;99.90
24152;DHT22;12311;50.866;4.332;2023-06-22T05:21:30;21.70;99.90
24152;DHT22;12311;50.866;4.332;2023-06-22T05:23:56;21.80;99.90
24152;DHT22;12311;50.866;4.332;2023-06-22T05:26:26;21.80;99.90
24152;DHT22;12311;50.866;4.332;2023-06-22T05:28:52;21.80;99.90
24152;DHT22;12311;50.866;4.332;2023-06-22T05:31:18;21.80;99.90
24152;DHT22;12311;50.866;4.332;2023-06-22T05:33:51;21.60;99.90
24152;DHT22;12311;50.866;4.332;2023-06-22T05:36:17;21.30;99.90
24152;DHT22;12311;50.866;4.332;2023-06-22T05:38:45;21.10;99.90
24152;DHT22;12311;50.866;4.332;2023-06-22T05:41:11;20.90;99.90
24152;DHT22;12311;50.866;4.332;2023-06-22T05:43:37;20.80;99.90
24152;DHT22;12311;50.866;4.332;2023-06-22T05:46:04;20.60;99.90
24152;DHT22;12311;50.866;4.332;2023-06-22T05:48:29;20.40;99.90
24152;DHT22;12311;50.866;4.332;2023-06-22T05:50:55;20.40;99.90
24152;DHT22;12311;50.866;4.332;2023-06-22T05:53:21;20.40;99.90
24152;DHT22;12311;50.866;4.332;2023-06-22T05:55:47;20.30;99.90
24152;DHT22;12311;50.866;4.332;2023-06-22T05:58:12;20.40;99.90
24152;DHT22;12311;50.866;4.332;2023-06-22T06:00:42;20.30;99.90
24152;DHT22;12311;50.866;4.332;2023-06-22T06:03:09;20.30;99.90
24152;DHT22;12311;50.866;4.332;2023-06-22T06:05:36;20.40;99.90
24152;DHT22;12311;50.866;4.332;2023-06-22T06:08:03;20.30;99.90
24152;DHT22;12311;50.866;4.332;2023-06-22T06:10:30;20.30;99.90
24152;DHT22;12311;50.866;4.332;2023-06-22T06:12:56;20.30;99.90
24152;DHT22;12311;50.866;4.332;2023-06-22T06:15:22;20.20;99.90
24152;DHT22;12311;50.866;4.332;2023-06-22T06:17:52;20.10;99.90
24152;DHT22;12311;50.866;4.332;2023-06-22T06:20:23;20.10;99.90
24152;DHT22;12311;50.866;4.332;2023-06-22T06:22:49;20.10;99.90
24152;DHT22;12311;50.866;4.332;2023-06-22T06:25:15;20.10;99.90
24152;DHT22;12311;50.866;4.332;2023-06-22T06:27:51;20.10;99.90
24152;DHT22;12311;50.866;4.332;2023-06-22T06:30:20;20.10;99.90
24152;DHT22;12311;50.866;4.332;2023-06-22T06:32:46;20.20;99.90
24152;DHT22;12311;50.866;4.332;2023-06-22T06:35:14;20.30;99.90
24152;DHT22;12311;50.866;4.332;2023-06-22T06:37:41;20.30;99.90
24152;DHT22;12311;50.866;4.332;2023-06-22T06:40:08;20.50;99.90
24152;DHT22;12311;50.866;4.332;2023-06-22T06:42:42;20.60;99.90
24152;DHT22;12311;50.866;4.332;2023-06-22T06:45:11;20.80;99.90
24152;DHT22;12311;50.866;4.332;2023-06-22T06:47:37;21.10;99.90
24152;DHT22;12311;50.866;4.332;2023-06-22T06:50:04;21.10;99.90
24152;DHT22;12311;50.866;4.332;2023-06-22T06:52:30;21.10;99.90
24152;DHT22;12311;50.866;4.332;2023-06-22T06:54:55;21.20;99.90
24152;DHT22;12311;50.866;4.332;2023-06-22T06:57:21;21.40;99.90
24152;DHT22;12311;50.866;4.332;2023-06-22T06:59:48;21.60;99.90
24152;DHT22;12311;50.866;4.332;2023-06-22T07:02:15;21.80;99.90
24152;DHT22;12311;50.866;4.332;2023-06-22T07:04:41;21.90;99.90
24152;DHT22;12311;50.866;4.332;2023-06-22T07:07:07;21.90;99.90
24152;DHT22;12311;50.866;4.332;2023-06-22T07:09:33;22.00;99.90
24152;DHT22;12311;50.866;4.332;2023-06-22T07:11:58;22.20;99.90
24152;DHT22;12311;50.866;4.332;2023-06-22T07:14:24;22.30;99.90
24152;DHT22;12311;50.866;4.332;2023-06-22T07:16:49;22.30;99.90
24152;DHT22;12311;50.866;4.332;2023-06-22T07:19:15;22.50;99.90
24152;DHT22;12311;50.866;4.332;2023-06-22T07:21:41;22.70;99.90
24152;DHT22;12311;50.866;4.332;2023-06-22T07:24:07;22.70;99.90
24152;DHT22;12311;50.866;4.332;2023-06-22T07:26:33;22.70;99.90
24152;DHT22;12311;50.866;4.332;2023-06-22T07:28:59;22.70;99.90
24152;DHT22;12311;50.866;4.332;2023-06-22T07:31:25;22.40;99.90
24152;DHT22;12311;50.866;4.332;2023-06-22T07:33:51;22.40;99.90
24152;DHT22;12311;50.866;4.332;2023-06-22T07:36:17;22.50;99.90
24152;DHT22;12311;50.866;4.332;2023-06-22T07:38:43;22.60;99.90
24152;DHT22;12311;50.866;4.332;2023-06-22T07:41:09;22.60;99.90
24152;DHT22;12311;50.866;4.332;2023-06-22T07:43:35;22.60;99.90
24152;DHT22;12311;50.866;4.332;2023-06-22T07:46:03;22.80;99.90
24152;DHT22;12311;50.866;4.332;2023-06-22T07:48:29;22.80;99.90
24152;DHT22;12311;50.866;4.332;2023-06-22T07:50:55;22.90;99.90
24152;DHT22;12311;50.866;4.332;2023-06-22T07:53:21;22.80;99.90
24152;DHT22;12311;50.866;4.332;2023-06-22T07:55:47;22.90;99.90
24152;DHT22;12311;50.866;4.332;2023-06-22T07:58:13;23.00;99.90
24152;DHT22;12311;50.866;4.332;2023-06-22T08:00:39;23.10;99.90
24152;DHT22;12311;50.866;4.332;2023-06-22T08:03:04;23.00;99.90
24152;DHT22;12311;50.866;4.332;2023-06-22T08:05:31;23.40;99.90
24152;DHT22;12311;50.866;4.332;2023-06-22T08:07:57;23.50;99.90
24152;DHT22;12311;50.866;4.332;2023-06-22T08:10:22;23.50;99.90
24152;DHT22;12311;50.866;4.332;2023-06-22T08:12:48;23.50;99.90
24152;DHT22;12311;50.866;4.332;2023-06-22T08:15:14;23.40;99.90
24152;DHT22;12311;50.866;4.332;2023-06-22T08:17:40;23.30;99.90
24152;DHT22;12311;50.866;4.332;2023-06-22T08:20:07;23.20;99.90
24152;DHT22;12311;50.866;4.332;2023-06-22T08:22:42;23.20;99.90
24152;DHT22;12311;50.866;4.332;2023-06-22T08:25:09;22.90;99.90
24152;DHT22;12311;50.866;4.332;2023-06-22T08:27:35;22.90;99.90
24152;DHT22;12311;50.866;4.332;2023-06-22T08:30:01;22.80;99.90
24152;DHT22;12311;50.866;4.332;2023-06-22T08:32:28;22.70;99.90
24152;DHT22;12311;50.866;4.332;2023-06-22T08:34:54;22.50;99.90
24152;DHT22;12311;50.866;4.332;2023-06-22T08:37:20;22.30;99.90
24152;DHT22;12311;50.866;4.332;2023-06-22T08:39:46;22.30;99.90
24152;DHT22;12311;50.866;4.332;2023-06-22T08:42:12;22.30;99.90
24152;DHT22;12311;50.866;4.332;2023-06-22T08:44:38;22.10;99.90
24152;DHT22;12311;50.866;4.332;2023-06-22T08:47:04;22.10;99.90
24152;DHT22;12311;50.866;4.332;2023-06-22T08:49:29;22.00;99.90
24152;DHT22;12311;50.866;4.332;2023-06-22T08:51:55;22.00;99.90
24152;DHT22;12311;50.866;4.332;2023-06-22T08:54:22;21.90;99.90
24152;DHT22;12311;50.866;4.332;2023-06-22T08:56:48;22.00;99.90
24152;DHT22;12311;50.866;4.332;2023-06-22T08:59:13;22.00;99.90
24152;DHT22;12311;50.866;4.332;2023-06-22T09:01:39;22.00;99.90
24152;DHT22;12311;50.866;4.332;2023-06-22T09:04:05;21.90;99.90
24152;DHT22;12311;50.866;4.332;2023-06-22T09:06:32;21.80;99.90
24152;DHT22;12311;50.866;4.332;2023-06-22T09:08:58;21.90;99.90
24152;DHT22;12311;50.866;4.332;2023-06-22T09:11:27;21.90;99.90
24152;DHT22;12311;50.866;4.332;2023-06-22T09:13:53;21.70;99.90
24152;DHT22;12311;50.866;4.332;2023-06-22T09:16:19;21.70;99.90
24152;DHT22;12311;50.866;4.332;2023-06-22T09:18:48;21.60;99.90
24152;DHT22;12311;50.866;4.332;2023-06-22T09:21:14;21.70;99.90
24152;DHT22;12311;50.866;4.332;2023-06-22T09:23:39;21.70;99.90
24152;DHT22;12311;50.866;4.332;2023-06-22T09:26:05;21.80;99.90
24152;DHT22;12311;50.866;4.332;2023-06-22T09:28:31;21.90;99.90
24152;DHT22;12311;50.866;4.332;2023-06-22T09:30:56;21.80;99.90
24152;DHT22;12311;50.866;4.332;2023-06-22T09:33:25;21.70;99.90
24152;DHT22;12311;50.866;4.332;2023-06-22T09:35:51;21.60;99.90
24152;DHT22;12311;50.866;4.332;2023-06-22T09:38:17;21.50;99.90
24152;DHT22;12311;50.866;4.332;2023-06-22T09:40:42;21.40;99.90
24152;DHT22;12311;50.866;4.332;2023-06-22T09:43:08;21.20;99.90
24152;DHT22;12311;50.866;4.332;2023-06-22T09:45:34;21.00;99.90
24152;DHT22;12311;50.866;4.332;2023-06-22T09:48:00;20.80;99.90
24152;DHT22;12311;50.866;4.332;2023-06-22T09:50:26;20.60;99.90
24152;DHT22;12311;50.866;4.332;2023-06-22T09:52:51;20.50;99.90
24152;DHT22;12311;50.866;4.332;2023-06-22T09:55:21;20.40;99.90
24152;DHT22;12311;50.866;4.332;2023-06-22T09:57:46;20.30;99.90
24152;DHT22;12311;50.866;4.332;2023-06-22T10:00:13;20.40;99.90
24152;DHT22;12311;50.866;4.332;2023-06-22T10:02:41;20.20;99.90
24152;DHT22;12311;50.866;4.332;2023-06-22T10:05:07;20.00;99.90
24152;DHT22;12311;50.866;4.332;2023-06-22T10:07:33;20.00;99.90
24152;DHT22;12311;50.866;4.332;2023-06-22T10:09:59;19.90;99.90
24152;DHT22;12311;50.866;4.332;2023-06-22T10:12:27;19.70;99.90
24152;DHT22;12311;50.866;4.332;2023-06-22T10:14:53;19.70;99.90
24152;DHT22;12311;50.866;4.332;2023-06-22T10:17:19;19.50;99.90
24152;DHT22;12311;50.866;4.332;2023-06-22T10:19:44;19.40;99.90
24152;DHT22;12311;50.866;4.332;2023-06-22T10:22:10;19.10;99.90
24152;DHT22;12311;50.866;4.332;2023-06-22T10:24:36;18.90;99.90
24152;DHT22;12311;50.866;4.332;2023-06-22T10:27:01;18.70;99.90
24152;DHT22;12311;50.866;4.332;2023-06-22T10:29:27;18.60;99.90
24152;DHT22;12311;50.866;4.332;2023-06-22T10:31:53;18.60;99.90
24152;DHT22;12311;50.866;4.332;2023-06-22T10:34:18;18.60;99.90
24152;DHT22;12311;50.866;4.332;2023-06-22T10:36:44;18.60;99.90
24152;DHT22;12311;50.866;4.332;2023-06-22T10:39:12;18.60;99.90
24152;DHT22;12311;50.866;4.332;2023-06-22T10:41:38;18.60;99.90
24152;DHT22;12311;50.866;4.332;2023-06-22T10:44:04;18.60;99.90
24152;DHT22;12311;50.866;4.332;2023-06-22T10:46:29;18.60;99.90
24152;DHT22;12311;50.866;4.332;2023-06-22T10:48:55;18.60;99.90
24152;DHT22;12311;50.866;4.332;2023-06-22T10:51:22;18.70;99.90
24152;DHT22;12311;50.866;4.332;2023-06-22T10:53:48;18.80;99.90
24152;DHT22;12311;50.866;4.332;2023-06-22T10:56:13;18.80;99.90
24152;DHT22;12311;50.866;4.332;2023-06-22T10:58:39;18.90;99.90
24152;DHT22;12311;50.866;4.332;2023-06-22T11:01:05;19.00;99.90
24152;DHT22;12311;50.866;4.332;2023-06-22T11:03:30;18.90;99.90
24152;DHT22;12311;50.866;4.332;2023-06-22T11:05:56;18.90;99.90
24152;DHT22;12311;50.866;4.332;2023-06-22T11:08:22;18.90;99.90
24152;DHT22;12311;50.866;4.332;2023-06-22T11:10:47;18.80;99.90
24152;DHT22;12311;50.866;4.332;2023-06-22T11:13:13;18.90;99.90
24152;DHT22;12311;50.866;4.332;2023-06-22T11:15:39;19.00;99.90
24152;DHT22;12311;50.866;4.332;2023-06-22T11:18:05;19.10;99.90
24152;DHT22;12311;50.866;4.332;2023-06-22T11:20:33;19.20;99.90
24152;DHT22;12311;50.866;4.332;2023-06-22T11:23:00;19.30;99.90
24152;DHT22;12311;50.866;4.332;2023-06-22T11:25:25;19.20;99.90
24152;DHT22;12311;50.866;4.332;2023-06-22T11:27:51;19.20;99.90
24152;DHT22;12311;50.866;4.332;2023-06-22T11:30:19;19.20;99.90
24152;DHT22;12311;50.866;4.332;2023-06-22T11:32:45;19.10;99.90
24152;DHT22;12311;50.866;4.332;2023-06-22T11:35:10;19.00;99.90
24152;DHT22;12311;50.866;4.332;2023-06-22T11:37:36;18.90;99.90
24152;DHT22;12311;50.866;4.332;2023-06-22T11:40:02;18.90;99.90
24152;DHT22;12311;50.866;4.332;2023-06-22T11:42:30;18.90;99.90
24152;DHT22;12311;50.866;4.332;2023-06-22T11:44:56;18.90;99.90
24152;DHT22;12311;50.866;4.332;2023-06-22T11:47:22;18.90;99.90
24152;DHT22;12311;50.866;4.332;2023-06-22T11:49:47;18.90;99.90
24152;DHT22;12311;50.866;4.332;2023-06-22T11:52:13;19.00;99.90
24152;DHT22;12311;50.866;4.332;2023-06-22T11:54:38;19.00;99.90
24152;DHT22;12311;50.866;4.332;2023-06-22T11:57:04;18.90;99.90
24152;DHT22;12311;50.866;4.332;2023-06-22T11:59:30;18.90;99.90
24152;DHT22;12311;50.866;4.332;2023-06-22T12:01:56;19.00;99.90
24152;DHT22;12311;50.866;4.332;2023-06-22T12:04:23;19.10;99.90
24152;DHT22;12311;50.866;4.332;2023-06-22T12:06:49;19.10;99.90
24152;DHT22;12311;50.866;4.332;2023-06-22T12:09:14;19.10;99.90
24152;DHT22;12311;50.866;4.332;2023-06-22T12:11:40;19.10;99.90
24152;DHT22;12311;50.866;4.332;2023-06-22T12:14:06;19.10;99.90
24152;DHT22;12311;50.866;4.332;2023-06-22T12:16:31;19.10;99.90
24152;DHT22;12311;50.866;4.332;2023-06-22T12:18:57;19.10;99.90
24152;DHT22;12311;50.866;4.332;2023-06-22T12:21:23;19.00;99.90
24152;DHT22;12311;50.866;4.332;2023-06-22T12:23:48;18.90;99.90
24152;DHT22;12311;50.866;4.332;2023-06-22T12:26:14;18.80;99.90
24152;DHT22;12311;50.866;4.332;2023-06-22T12:28:40;18.70;99.90
24152;DHT22;12311;50.866;4.332;2023-06-22T12:31:05;18.80;99.90
24152;DHT22;12311;50.866;4.332;2023-06-22T12:33:31;18.80;99.90
24152;DHT22;12311;50.866;4.332;2023-06-22T12:35:57;18.90;99.90
24152;DHT22;12311;50.866;4.332;2023-06-22T12:38:23;19.00;99.90
24152;DHT22;12311;50.866;4.332;2023-06-22T12:40:51;19.00;99.90
24152;DHT22;12311;50.866;4.332;2023-06-22T12:43:17;18.90;99.90
24152;DHT22;12311;50.866;4.332;2023-06-22T12:45:42;18.90;99.90
24152;DHT22;12311;50.866;4.332;2023-06-22T12:48:08;19.00;99.90
24152;DHT22;12311;50.866;4.332;2023-06-22T12:50:34;19.00;99.90
24152;DHT22;12311;50.866;4.332;2023-06-22T12:52:59;19.00;99.90
24152;DHT22;12311;50.866;4.332;2023-06-22T12:55:27;19.00;99.90
24152;DHT22;12311;50.866;4.332;2023-06-22T12:57:53;18.90;99.90
24152;DHT22;12311;50.866;4.332;2023-06-22T13:00:19;19.10;99.90
24152;DHT22;12311;50.866;4.332;2023-06-22T13:02:45;19.00;99.90
24152;DHT22;12311;50.866;4.332;2023-06-22T13:05:11;19.00;99.90
24152;DHT22;12311;50.866;4.332;2023-06-22T13:07:36;18.90;99.90
24152;DHT22;12311;50.866;4.332;2023-06-22T13:10:02;18.80;99.90
24152;DHT22;12311;50.866;4.332;2023-06-22T13:12:28;18.80;99.90
24152;DHT22;12311;50.866;4.332;2023-06-22T13:14:54;18.80;99.90
24152;DHT22;12311;50.866;4.332;2023-06-22T13:17:20;18.80;99.90
24152;DHT22;12311;50.866;4.332;2023-06-22T13:19:46;18.70;99.90
24152;DHT22;12311;50.866;4.332;2023-06-22T13:22:31;18.70;99.90
24152;DHT22;12311;50.866;4.332;2023-06-22T13:24:58;18.70;99.90
24152;DHT22;12311;50.866;4.332;2023-06-22T13:27:23;18.60;99.90
24152;DHT22;12311;50.866;4.332;2023-06-22T13:29:49;18.60;99.90
24152;DHT22;12311;50.866;4.332;2023-06-22T13:32:15;18.60;99.90
24152;DHT22;12311;50.866;4.332;2023-06-22T13:34:41;18.60;99.90
24152;DHT22;12311;50.866;4.332;2023-06-22T13:37:07;18.50;99.90
24152;DHT22;12311;50.866;4.332;2023-06-22T13:39:32;18.50;99.90
24152;DHT22;12311;50.866;4.332;2023-06-22T13:41:58;18.40;99.90
24152;DHT22;12311;50.866;4.332;2023-06-22T13:44:24;18.40;99.90
24152;DHT22;12311;50.866;4.332;2023-06-22T13:46:54;18.50;99.90
24152;DHT22;12311;50.866;4.332;2023-06-22T13:49:20;18.50;99.90
24152;DHT22;12311;50.866;4.332;2023-06-22T13:51:47;18.40;99.90
24152;DHT22;12311;50.866;4.332;2023-06-22T13:54:16;18.40;99.90
24152;DHT22;12311;50.866;4.332;2023-06-22T13:56:41;18.50;99.90
24152;DHT22;12311;50.866;4.332;2023-06-22T13:59:07;18.40;99.90
24152;DHT22;12311;50.866;4.332;2023-06-22T14:01:36;18.40;99.90
24152;DHT22;12311;50.866;4.332;2023-06-22T14:04:04;18.40;99.90
24152;DHT22;12311;50.866;4.332;2023-06-22T14:06:30;18.40;99.90
24152;DHT22;12311;50.866;4.332;2023-06-22T14:08:55;18.40;99.90
24152;DHT22;12311;50.866;4.332;2023-06-22T14:11:21;18.40;99.90
24152;DHT22;12311;50.866;4.332;2023-06-22T14:13:47;18.50;99.90
24152;DHT22;12311;50.866;4.332;2023-06-22T14:16:12;18.40;99.90
24152;DHT22;12311;50.866;4.332;2023-06-22T14:18:38;18.50;99.90
24152;DHT22;12311;50.866;4.332;2023-06-22T14:21:04;18.50;99.90
24152;DHT22;12311;50.866;4.332;2023-06-22T14:23:30;18.50;99.90
24152;DHT22;12311;50.866;4.332;2023-06-22T14:25:55;18.40;99.90
24152;DHT22;12311;50.866;4.332;2023-06-22T14:28:21;18.50;99.90
24152;DHT22;12311;50.866;4.332;2023-06-22T14:30:47;18.50;99.90
24152;DHT22;12311;50.866;4.332;2023-06-22T14:33:13;18.50;99.90
24152;DHT22;12311;50.866;4.332;2023-06-22T14:35:38;18.60;99.90
24152;DHT22;12311;50.866;4.332;2023-06-22T14:38:04;18.60;99.90
24152;DHT22;12311;50.866;4.332;2023-06-22T14:40:30;18.60;99.90
24152;DHT22;12311;50.866;4.332;2023-06-22T14:42:56;18.60;99.90
24152;DHT22;12311;50.866;4.332;2023-06-22T14:45:23;18.60;99.90
24152;DHT22;12311;50.866;4.332;2023-06-22T14:47:48;18.60;99.90
24152;DHT22;12311;50.866;4.332;2023-06-22T14:50:14;18.60;99.90
24152;DHT22;12311;50.866;4.332;2023-06-22T14:52:40;18.60;99.90
24152;DHT22;12311;50.866;4.332;2023-06-22T14:55:06;18.70;99.90
24152;DHT22;12311;50.866;4.332;2023-06-22T14:57:32;18.70;99.90
24152;DHT22;12311;50.866;4.332;2023-06-22T14:59:58;18.80;99.90
24152;DHT22;12311;50.866;4.332;2023-06-22T15:02:24;18.80;99.90
24152;DHT22;12311;50.866;4.332;2023-06-22T15:04:49;18.80;99.90
24152;DHT22;12311;50.866;4.332;2023-06-22T15:07:18;18.80;99.90
24152;DHT22;12311;50.866;4.332;2023-06-22T15:09:45;18.90;99.90
24152;DHT22;12311;50.866;4.332;2023-06-22T15:12:11;18.80;99.90
24152;DHT22;12311;50.866;4.332;2023-06-22T15:14:43;18.80;99.90
24152;DHT22;12311;50.866;4.332;2023-06-22T15:17:09;18.90;99.90
24152;DHT22;12311;50.866;4.332;2023-06-22T15:19:38;18.90;99.90
24152;DHT22;12311;50.866;4.332;2023-06-22T15:22:05;18.90;99.90
24152;DHT22;12311;50.866;4.332;2023-06-22T15:24:31;18.90;99.90
24152;DHT22;12311;50.866;4.332;2023-06-22T15:26:58;18.90;99.90
24152;DHT22;12311;50.866;4.332;2023-06-22T15:29:24;19.00;99.90
24152;DHT22;12311;50.866;4.332;2023-06-22T15:31:50;19.00;99.90